Main page
METAR-TAF:

METAR-TAF

Airports :

Cotonou, Benin

Cadjehoun Airport

latitude: 06-21N, longitude: 002-23E, elevation: 5 m

Current weather observation

The report was made 19 minutes ago, at 10:00 UTC
Wind 11 kt from the Southwest
Temperature 26°C
Humidity 84%
Pressure 1014 hPa
Visibility: 8000 m
Scattered clouds at a height of 1100 ft

METAR: DBBB 211000Z 23011KT 8000 SCT011 26/23 Q1014 NOSIG

Time: 11:19 (10:19 UTC)

Forecast

The report was made 2 hours and 19 minutes ago, at 08:00 UTC
Forecast valid from 21 at 08 UTC to 22 at 12 UTC
Wind 10 kt from the Southwest
Visibility: 4000 m
Broken clouds at a height of 800 ft
rain, drizzle
Becoming
from 21 at 12 UTC to 21 at 14 UTC
Visibility: 8000 m
Scattered clouds at a height of 1200 ft
Temporary
from 22 at 04 UTC to 22 at 09 UTC
Broken clouds at a height of 1000 ft

TAF: DBBB 210800Z 2108/2212 22010KT 4000 RADZ BKN008 BECMG 2112/2114 8000 NSW SCT012 TEMPO 2204/2209 BKN010

Weather observations and forecasts of more than 4000 airports (METAR and TAF reports).

The available stations are represented by yellow and red dots on the map.

Hover mouse over dot to see the name of the station.

Then click to see weather observations and forecasts.

To change the map : click on the green buttons with a black cross to zoom in, on the green button with a dash to zoom out, or on the green arrows for adjacent maps.


METAR-TAF: